Airport ID:CXW
Update Time (UTC):24/01/2022 23:10
Wind Speed (Knots):8
Wind Direction (Magnetic):210
Temperature (°C):16
Dew Point (°C):5
Humidity (%):53
Altimeter (inHg):29.79
Density Altitude (Feet):
Visibility (Miles):4
Clouds (Hundreds of feet):CLR
Present Weather:HZ
METAR:METAR CXW 242305Z AUTO 20008KT 5SM HZ CLR 16/05 A2979 RMK A01

The data displayed is for advisory purposes only and is not to be used for flight planning or operations.